createdAt,value
2019-05-10T00:00:46.824Z,21.87
2019-05-10T00:03:36.730Z,22.57
2019-05-10T00:06:26.018Z,24.53
2019-05-10T00:08:56.722Z,23.37
2019-05-10T00:11:49.328Z,24.20
2019-05-10T00:14:46.397Z,25.83
2019-05-10T00:17:31.219Z,26.93
2019-05-10T00:20:03.012Z,27.70
2019-05-10T00:22:35.019Z,27.20
2019-05-10T00:25:07.962Z,26.82
2019-05-10T00:27:39.850Z,25.70
2019-05-10T00:30:12.250Z,25.33
2019-05-10T00:32:44.400Z,26.70
2019-05-10T00:35:16.110Z,25.93
2019-05-10T00:37:48.585Z,27.60
2019-05-10T00:40:20.277Z,27.43
2019-05-10T00:42:51.911Z,25.07
2019-05-10T00:45:24.014Z,25.20
2019-05-10T00:47:56.192Z,24.93
2019-05-10T00:50:28.452Z,23.07
2019-05-10T00:53:00.270Z,20.20
2019-05-10T00:55:32.683Z,21.00
2019-05-10T00:58:04.596Z,22.10
2019-05-10T01:00:36.813Z,21.57
2019-05-10T01:03:10.517Z,23.23
2019-05-10T01:05:42.297Z,22.93
2019-05-10T01:08:14.188Z,22.25
2019-05-10T01:10:45.849Z,21.60
2019-05-10T01:13:17.613Z,22.93
2019-05-10T01:15:49.658Z,22.33
2019-05-10T01:18:21.543Z,21.50
2019-05-10T01:20:53.315Z,21.17
2019-05-10T01:23:25.106Z,22.27
2019-05-10T01:25:57.037Z,22.33
2019-05-10T01:28:29.942Z,22.83
2019-05-10T01:31:01.822Z,22.32
2019-05-10T01:33:33.683Z,21.77
2019-05-10T01:36:06.419Z,20.80
2019-05-10T01:38:38.084Z,21.40
2019-05-10T01:41:11.135Z,19.93
2019-05-10T01:43:42.949Z,18.83
2019-05-10T01:46:14.466Z,19.60
2019-05-10T01:48:47.088Z,18.97
2019-05-10T01:51:20.446Z,14.75
2019-05-10T01:53:52.322Z,15.67
2019-05-10T01:56:23.850Z,17.50
2019-05-10T01:58:56.081Z,15.53
2019-05-10T02:01:29.025Z,17.07
2019-05-10T02:04:00.841Z,17.67
2019-05-10T02:06:32.931Z,17.37
2019-05-10T02:09:07.402Z,16.67
2019-05-10T02:11:39.382Z,16.23
2019-05-10T02:14:10.996Z,16.37
2019-05-10T02:16:42.939Z,15.07
2019-05-10T02:19:15.887Z,14.47
2019-05-10T02:21:47.896Z,14.50
2019-05-10T02:24:21.219Z,15.40
2019-05-10T02:26:52.985Z,14.90
2019-05-10T02:29:24.964Z,14.97
2019-05-10T02:31:56.650Z,15.40
2019-05-10T02:34:28.472Z,15.30
2019-05-10T02:37:00.368Z,16.27
2019-05-10T02:39:32.644Z,15.70
2019-05-10T02:42:04.222Z,15.50
2019-05-10T02:44:35.964Z,15.50
2019-05-10T02:47:07.527Z,14.50
2019-05-10T02:49:39.491Z,16.00
2019-05-10T02:52:11.503Z,14.73
2019-05-10T02:54:44.323Z,14.77
2019-05-10T02:57:17.331Z,15.30
2019-05-10T02:59:50.557Z,16.00
2019-05-10T03:02:22.989Z,16.50
2019-05-10T03:04:57.063Z,14.73
2019-05-10T03:07:29.886Z,15.17
2019-05-10T03:10:04.152Z,16.83
2019-05-10T03:12:38.683Z,16.23
2019-05-10T03:15:12.086Z,16.03
2019-05-10T03:17:44.058Z,16.37
2019-05-10T03:20:15.898Z,15.50
2019-05-10T03:22:48.555Z,16.07
2019-05-10T03:25:20.565Z,16.10
2019-05-10T03:27:52.880Z,15.90
2019-05-10T03:30:24.594Z,15.80
2019-05-10T03:32:56.597Z,15.60
2019-05-10T03:35:28.608Z,16.97
2019-05-10T03:38:01.317Z,18.10
2019-05-10T03:40:33.039Z,20.80
2019-05-10T03:43:04.691Z,21.70
2019-05-10T03:45:36.422Z,23.27
2019-05-10T03:48:09.965Z,22.37
2019-05-10T03:50:41.706Z,22.37
2019-05-10T03:53:13.611Z,24.07
2019-05-10T03:55:45.974Z,22.77
2019-05-10T03:58:17.857Z,23.37
2019-05-10T04:00:50.964Z,23.52
2019-05-10T04:03:22.709Z,24.05
2019-05-10T04:05:54.436Z,25.40
2019-05-10T04:08:26.173Z,24.17
2019-05-10T04:10:58.039Z,24.57
2019-05-10T04:13:29.882Z,27.73
2019-05-10T04:16:01.884Z,25.67
2019-05-10T04:18:33.959Z,25.80
2019-05-10T04:21:07.713Z,26.05
2019-05-10T04:23:39.420Z,25.73
2019-05-10T04:26:11.042Z,26.07
2019-05-10T04:28:43.281Z,25.83
2019-05-10T04:31:15.370Z,27.10
2019-05-10T04:33:47.705Z,25.45
2019-05-10T04:36:21.516Z,24.55
2019-05-10T04:38:53.361Z,27.77
2019-05-10T04:41:26.884Z,27.50
2019-05-10T04:43:59.983Z,31.60
2019-05-10T04:46:32.122Z,33.70
2019-05-10T04:49:04.127Z,28.30
2019-05-10T04:51:36.277Z,29.40
2019-05-10T04:54:09.987Z,27.30
2019-05-10T04:56:41.618Z,22.07
2019-05-10T04:59:13.348Z,27.85
2019-05-10T05:01:44.968Z,22.17
2019-05-10T05:04:16.675Z,23.57
2019-05-10T05:06:48.213Z,25.80
2019-05-10T05:09:20.078Z,14.83
2019-05-10T05:11:51.648Z,15.70
2019-05-10T05:14:23.594Z,17.07
2019-05-10T05:16:55.660Z,20.53
2019-05-10T05:19:27.588Z,16.33
2019-05-10T05:21:59.343Z,16.47
2019-05-10T05:24:31.037Z,16.87
2019-05-10T05:27:03.105Z,15.63
2019-05-10T05:29:34.961Z,15.37
2019-05-10T05:32:07.518Z,15.43
2019-05-10T05:34:39.310Z,16.27
2019-05-10T05:37:11.262Z,15.40
2019-05-10T05:39:43.206Z,14.83
2019-05-10T05:42:15.094Z,16.05
2019-05-10T05:44:46.835Z,14.63
2019-05-10T05:47:18.513Z,15.40
2019-05-10T05:49:50.202Z,16.03
2019-05-10T05:52:22.395Z,15.25
2019-05-10T05:54:57.547Z,16.67
2019-05-10T05:57:29.646Z,16.90
2019-05-10T06:00:04.232Z,16.63
2019-05-10T06:02:44.365Z,15.80
2019-05-10T06:05:09.153Z,13.53
2019-05-10T06:07:41.006Z,11.50
2019-05-10T06:10:17.120Z,12.20
2019-05-10T06:12:50.678Z,11.40
2019-05-10T06:15:23.019Z,11.40
2019-05-10T06:17:56.990Z,10.37
2019-05-10T06:20:28.083Z,9.90
2019-05-10T06:23:06.243Z,9.83
2019-05-10T06:25:39.455Z,9.90
2019-05-10T06:28:24.097Z,9.03
2019-05-10T06:30:40.394Z,10.17
2019-05-10T06:33:13.221Z,10.30
2019-05-10T06:35:46.418Z,9.13
2019-05-10T06:38:18.162Z,10.55
2019-05-10T06:40:51.704Z,10.23
2019-05-10T06:43:23.913Z,12.10
2019-05-10T06:45:55.928Z,11.70
2019-05-10T06:48:33.247Z,12.53
2019-05-10T06:51:03.117Z,10.93
2019-05-10T06:53:35.634Z,8.40
2019-05-10T06:56:07.354Z,8.80
2019-05-10T06:58:39.898Z,8.50
2019-05-10T07:01:11.641Z,7.70
2019-05-10T07:03:43.273Z,7.47
2019-05-10T07:06:14.768Z,7.60
2019-05-10T07:08:51.704Z,8.23
2019-05-10T07:11:19.781Z,8.97
2019-05-10T07:13:53.122Z,7.80
2019-05-10T07:16:26.118Z,7.40
2019-05-10T07:19:00.707Z,7.93
2019-05-10T07:21:32.331Z,8.53
2019-05-10T07:24:04.250Z,9.07
2019-05-10T07:26:37.191Z,9.30
2019-05-10T07:29:08.695Z,9.10
2019-05-10T07:31:41.344Z,9.13
2019-05-10T07:34:15.845Z,8.88
2019-05-10T07:36:48.610Z,9.67
2019-05-10T07:39:21.319Z,8.23
2019-05-10T07:41:53.393Z,8.93
2019-05-10T07:44:25.033Z,8.17
2019-05-10T07:46:58.684Z,8.90
2019-05-10T07:49:32.482Z,8.63
2019-05-10T07:52:04.479Z,8.60
2019-05-10T07:54:37.568Z,8.83
2019-05-10T07:57:09.396Z,6.90
2019-05-10T07:59:49.978Z,6.17
2019-05-10T08:02:14.938Z,5.28
2019-05-10T08:04:46.634Z,5.37
2019-05-10T08:07:18.663Z,5.30
2019-05-10T08:09:50.520Z,5.07
2019-05-10T08:12:22.463Z,5.10
2019-05-10T08:14:53.944Z,5.30
2019-05-10T08:17:25.714Z,4.73
2019-05-10T08:19:57.612Z,4.47
2019-05-10T08:22:32.782Z,4.20
2019-05-10T08:25:03.189Z,4.67
2019-05-10T08:27:34.979Z,5.37
2019-05-10T08:30:22.636Z,4.53
2019-05-10T08:32:42.579Z,4.37
2019-05-10T08:35:17.052Z,4.87
2019-05-10T08:37:48.891Z,5.67
2019-05-10T08:40:28.131Z,5.15
2019-05-10T08:43:00.184Z,4.13
2019-05-10T08:45:27.384Z,4.10
2019-05-10T08:48:00.735Z,4.77
2019-05-10T08:50:47.843Z,4.67
2019-05-10T08:53:10.958Z,5.17
2019-05-10T08:55:39.434Z,5.23
2019-05-10T08:58:12.470Z,6.37
2019-05-10T09:00:53.743Z,5.20
2019-05-10T09:03:18.713Z,5.30
2019-05-10T09:05:52.535Z,5.30
2019-05-10T09:08:27.235Z,4.57
2019-05-10T09:10:58.217Z,4.37
2019-05-10T09:13:37.174Z,5.23
2019-05-10T09:16:03.278Z,6.33
2019-05-10T09:18:38.137Z,7.00
2019-05-10T09:21:10.559Z,6.40
2019-05-10T09:23:42.763Z,6.60
2019-05-10T09:26:16.613Z,5.85
2019-05-10T09:28:55.502Z,6.00
2019-05-10T09:50:02.120Z,4.47
2019-05-10T09:52:33.252Z,4.20
2019-05-10T09:55:10.184Z,3.80
2019-05-10T09:57:40.897Z,4.33
2019-05-10T10:00:13.446Z,4.47
2019-05-10T10:02:47.745Z,3.63
2019-05-10T10:05:19.496Z,4.00
2019-05-10T10:07:51.400Z,3.50
2019-05-10T10:10:30.097Z,3.80
2019-05-10T10:12:58.406Z,3.73
2019-05-10T10:15:34.214Z,4.47
2019-05-10T10:18:04.152Z,3.60
2019-05-10T10:20:43.401Z,3.33
2019-05-10T10:23:10.924Z,3.45
2019-05-10T10:25:42.469Z,3.80
2019-05-10T10:28:19.943Z,3.17
2019-05-10T10:30:50.361Z,3.63
2019-05-10T10:33:25.380Z,5.27
2019-05-10T10:35:56.384Z,3.73
2019-05-10T10:38:31.080Z,3.50
2019-05-10T10:41:02.121Z,3.63
2019-05-10T10:43:33.911Z,3.07
2019-05-10T10:46:11.828Z,3.17
2019-05-10T10:48:43.660Z,3.40
2019-05-10T10:51:12.696Z,3.17
2019-05-10T10:53:46.872Z,2.83
2019-05-10T10:56:17.846Z,2.70
2019-05-10T10:58:50.186Z,2.90
2019-05-10T11:01:25.562Z,3.47
2019-05-10T11:03:57.163Z,2.87
2019-05-10T11:06:29.164Z,3.03
2019-05-10T11:09:01.872Z,2.70
2019-05-10T11:11:38.822Z,3.30
2019-05-10T11:14:07.753Z,3.40
2019-05-10T11:16:41.263Z,3.70
2019-05-10T11:19:15.473Z,3.20
2019-05-10T11:21:51.245Z,3.57
2019-05-10T11:24:23.035Z,2.97
2019-05-10T11:26:54.742Z,2.70
2019-05-10T11:29:28.089Z,2.80
2019-05-10T11:32:15.507Z,2.87
2019-05-10T11:34:37.424Z,3.27
2019-05-10T11:37:07.037Z,2.83
2019-05-10T11:39:45.263Z,3.10
2019-05-10T11:42:15.540Z,2.77
2019-05-10T11:44:50.047Z,2.70
2019-05-10T11:47:26.742Z,2.67
2019-05-10T11:49:54.797Z,3.00
2019-05-10T11:52:29.191Z,2.50
2019-05-10T11:55:01.204Z,2.80
2019-05-10T11:57:33.517Z,3.00
2019-05-10T12:00:14.228Z,3.60
2019-05-10T12:03:00.664Z,3.27
2019-05-10T12:05:19.898Z,2.90
2019-05-10T12:07:54.175Z,2.50
2019-05-10T12:10:25.717Z,2.80
2019-05-10T12:13:08.745Z,3.73
2019-05-10T12:15:31.770Z,3.87
2019-05-10T12:18:04.958Z,3.60
2019-05-10T12:20:52.079Z,3.60
2019-05-10T12:23:13.149Z,2.80
2019-05-10T12:25:59.238Z,3.20
2019-05-10T12:28:24.459Z,3.10
2019-05-10T12:30:51.625Z,3.17
2019-05-10T12:33:25.487Z,2.50
2019-05-10T12:35:56.791Z,2.80
2019-05-10T12:38:29.732Z,2.70
2019-05-10T12:41:05.373Z,2.80
2019-05-10T12:43:37.978Z,3.00
2019-05-10T12:46:10.462Z,2.43
2019-05-10T12:48:42.641Z,3.67
2019-05-10T12:51:16.520Z,2.65
2019-05-10T12:53:52.081Z,2.60
2019-05-10T12:56:22.618Z,3.17
2019-05-10T12:58:57.956Z,2.30
2019-05-10T13:01:31.893Z,2.43
2019-05-10T13:04:07.454Z,1.90
2019-05-10T13:06:35.580Z,1.65
2019-05-10T13:09:08.456Z,1.77
2019-05-10T13:11:40.313Z,2.27
2019-05-10T13:14:11.991Z,1.55
2019-05-10T13:16:43.816Z,1.63
2019-05-10T13:19:19.981Z,1.95
2019-05-10T13:21:53.660Z,2.60
2019-05-10T13:24:22.949Z,2.22
2019-05-10T13:26:54.517Z,2.53
2019-05-10T13:29:26.286Z,2.17
2019-05-10T13:31:58.065Z,2.30
2019-05-10T13:34:30.181Z,2.40
2019-05-10T13:37:02.526Z,2.50
2019-05-10T13:39:34.275Z,2.30
2019-05-10T13:42:09.474Z,1.83
2019-05-10T13:44:42.908Z,2.10
2019-05-10T13:47:12.772Z,2.00
2019-05-10T13:49:48.488Z,1.80
2019-05-10T13:52:18.987Z,1.52
2019-05-10T13:54:50.759Z,1.60
2019-05-10T13:57:23.047Z,1.70
2019-05-10T13:59:55.638Z,1.57
2019-05-10T14:02:32.494Z,1.90
2019-05-10T14:05:01.772Z,2.43
2019-05-10T14:07:33.889Z,1.80
2019-05-10T14:10:05.935Z,2.30
2019-05-10T14:12:38.676Z,2.30
2019-05-10T14:15:13.598Z,2.60
2019-05-10T14:17:44.375Z,2.93
2019-05-10T14:20:25.343Z,2.47
2019-05-10T14:22:55.998Z,2.30
2019-05-10T14:25:29.634Z,2.30
2019-05-10T14:27:58.921Z,2.50
2019-05-10T14:30:31.580Z,2.80
2019-05-10T14:33:03.214Z,2.57
2019-05-10T14:35:35.272Z,3.33
2019-05-10T14:38:10.404Z,3.07
2019-05-10T14:40:40.649Z,3.07
2019-05-10T14:43:12.338Z,3.00
2019-05-10T14:45:44.244Z,3.40
2019-05-10T14:48:15.998Z,3.33
2019-05-10T14:50:48.026Z,3.40
2019-05-10T14:53:25.563Z,3.10
2019-05-10T14:55:55.699Z,2.90
2019-05-10T14:58:27.948Z,2.90
2019-05-10T15:00:59.536Z,2.73
2019-05-10T15:03:35.258Z,2.40
2019-05-10T15:06:05.111Z,2.20
2019-05-10T15:08:36.837Z,2.20
2019-05-10T15:11:09.049Z,2.50
2019-05-10T15:13:41.185Z,2.50
2019-05-10T15:16:19.035Z,2.20
2019-05-10T15:18:46.181Z,2.57
2019-05-10T15:21:18.406Z,2.50
2019-05-10T15:23:54.929Z,2.20
2019-05-10T15:26:24.977Z,2.00
2019-05-10T15:28:57.175Z,2.00
2019-05-10T15:31:31.289Z,2.30
2019-05-10T15:34:05.146Z,2.10
2019-05-10T15:36:36.414Z,2.57
2019-05-10T15:39:08.843Z,3.10
2019-05-10T15:41:42.224Z,3.03
2019-05-10T15:44:14.199Z,3.55
2019-05-10T15:46:47.001Z,3.10
2019-05-10T15:49:23.282Z,2.83
2019-05-10T15:51:56.907Z,2.67
2019-05-10T15:54:27.110Z,3.10
2019-05-10T15:57:00.012Z,2.83
2019-05-10T15:59:31.859Z,3.33
2019-05-10T16:02:03.674Z,2.73
2019-05-10T16:04:35.493Z,2.60
2019-05-10T16:07:09.289Z,2.90
2019-05-10T16:09:41.580Z,2.93
2019-05-10T16:12:13.533Z,2.85
2019-05-10T16:14:46.050Z,2.67
2019-05-10T16:17:23.183Z,2.90
2019-05-10T16:19:59.667Z,2.77
2019-05-10T16:22:30.005Z,2.83
2019-05-10T16:25:02.436Z,3.30
2019-05-10T16:27:34.072Z,2.73
2019-05-10T16:30:12.036Z,2.90
2019-05-10T16:32:41.727Z,2.50
2019-05-10T16:35:14.702Z,2.80
2019-05-10T16:37:46.497Z,2.20
2019-05-10T16:40:18.194Z,2.20
2019-05-10T16:42:49.964Z,1.75
2019-05-10T16:45:21.558Z,2.30
2019-05-10T16:47:53.074Z,2.30
2019-05-10T16:50:31.023Z,2.43
2019-05-10T16:52:59.647Z,3.20
2019-05-10T16:55:35.575Z,3.20
2019-05-10T16:58:09.533Z,2.80
2019-05-10T17:00:45.589Z,2.97
2019-05-10T17:03:18.349Z,3.00
2019-05-10T17:05:53.661Z,3.00
2019-05-10T17:08:20.587Z,2.77
2019-05-10T17:10:52.219Z,3.10
2019-05-10T17:13:24.163Z,3.25
2019-05-10T17:15:55.904Z,2.90
2019-05-10T17:18:27.534Z,3.00
2019-05-10T17:21:00.631Z,3.47
2019-05-10T17:23:32.188Z,2.90
2019-05-10T17:26:03.737Z,3.40
2019-05-10T17:28:37.454Z,3.20
2019-05-10T17:31:09.725Z,3.53
2019-05-10T17:33:42.677Z,3.63
2019-05-10T17:36:19.749Z,3.50
2019-05-10T17:38:53.401Z,3.43
2019-05-10T17:41:26.977Z,4.00
2019-05-10T17:43:58.707Z,3.63
2019-05-10T17:46:30.600Z,3.93
2019-05-10T17:49:02.281Z,4.70
2019-05-10T17:51:34.147Z,5.37
2019-05-10T17:54:07.447Z,5.62
2019-05-10T17:56:40.630Z,6.00
2019-05-10T17:59:14.023Z,6.62
2019-05-10T18:01:46.256Z,7.23
2019-05-10T18:04:18.057Z,7.72
2019-05-10T18:06:49.780Z,8.23
2019-05-10T18:09:21.825Z,7.80
2019-05-10T18:11:53.726Z,8.77
2019-05-10T18:14:25.677Z,8.70
2019-05-10T18:16:57.580Z,9.20
2019-05-10T18:19:31.276Z,8.93
2019-05-10T18:22:06.448Z,10.33
2019-05-10T18:24:41.455Z,10.63
2019-05-10T18:27:10.517Z,10.43
2019-05-10T18:29:42.165Z,11.20
2019-05-10T18:32:13.855Z,11.73
2019-05-10T18:34:47.331Z,11.60
2019-05-10T18:37:21.871Z,12.87
2019-05-10T18:39:53.322Z,13.93
2019-05-10T18:42:27.996Z,13.47
2019-05-10T18:44:59.855Z,13.00
2019-05-10T18:47:31.706Z,13.03
2019-05-10T18:50:03.299Z,13.40
2019-05-10T18:52:35.813Z,13.97
2019-05-10T18:55:07.758Z,14.17
2019-05-10T18:57:39.930Z,14.13
2019-05-10T19:00:12.589Z,15.03
2019-05-10T19:02:44.301Z,15.60
2019-05-10T19:05:16.127Z,15.05
2019-05-10T19:08:02.256Z,15.60
2019-05-10T19:10:21.157Z,16.40
2019-05-10T19:13:01.253Z,16.07
2019-05-10T19:15:27.259Z,15.50
2019-05-10T19:17:59.411Z,16.13
2019-05-10T19:20:30.994Z,15.30
2019-05-10T19:23:05.416Z,15.80
2019-05-10T19:25:37.818Z,16.25
2019-05-10T19:28:09.673Z,15.93
2019-05-10T19:30:42.013Z,16.10
2019-05-10T19:33:14.065Z,16.93
2019-05-10T19:35:46.482Z,16.03
2019-05-10T19:38:19.993Z,15.68
2019-05-10T19:40:52.877Z,15.90
2019-05-10T19:43:24.886Z,16.50
2019-05-10T19:45:59.565Z,16.90
2019-05-10T19:48:35.622Z,16.95
2019-05-10T19:51:09.600Z,16.13
2019-05-10T19:53:42.422Z,16.63
2019-05-10T19:56:14.359Z,16.50
2019-05-10T19:58:49.182Z,15.53
2019-05-10T20:01:20.901Z,16.35
2019-05-10T20:03:52.743Z,17.53
2019-05-10T20:06:24.518Z,15.53
2019-05-10T20:08:56.675Z,16.20
2019-05-10T20:11:29.317Z,15.70
2019-05-10T20:14:01.474Z,16.43
2019-05-10T20:16:33.197Z,15.90
2019-05-10T20:19:05.220Z,16.00
2019-05-10T20:21:37.376Z,15.98
2019-05-10T20:24:09.268Z,15.23
2019-05-10T20:26:40.767Z,16.60
2019-05-10T20:29:13.366Z,16.40
2019-05-10T20:31:44.919Z,16.00
2019-05-10T20:34:16.546Z,15.57
2019-05-10T20:36:49.906Z,16.00
2019-05-10T20:39:21.874Z,16.20
2019-05-10T20:41:53.897Z,15.60
2019-05-10T20:44:25.415Z,16.63
2019-05-10T20:46:58.208Z,15.50
2019-05-10T20:49:31.292Z,15.33
2019-05-10T20:52:02.993Z,15.87
2019-05-10T20:54:34.615Z,16.37
2019-05-10T20:57:06.340Z,16.43
2019-05-10T20:59:38.530Z,16.17
2019-05-10T21:02:10.589Z,15.70
2019-05-10T21:04:43.899Z,14.70
2019-05-10T21:07:15.470Z,15.45
2019-05-10T21:09:47.538Z,15.67
2019-05-10T21:12:19.558Z,16.40
2019-05-10T21:14:51.614Z,16.90
2019-05-10T21:17:23.529Z,17.47
2019-05-10T21:19:55.082Z,18.47
2019-05-10T21:22:27.557Z,18.07
2019-05-10T21:24:59.256Z,19.53
2019-05-10T21:27:32.001Z,21.07
2019-05-10T21:30:03.792Z,18.73
2019-05-10T21:32:35.857Z,20.70
2019-05-10T21:35:08.025Z,20.17
2019-05-10T21:37:39.665Z,21.10
2019-05-10T21:40:11.891Z,19.52
2019-05-10T21:42:43.866Z,19.50
2019-05-10T21:45:15.689Z,18.95
2019-05-10T21:47:51.689Z,20.67
2019-05-10T21:50:21.224Z,20.13
2019-05-10T21:52:53.015Z,19.67
2019-05-10T21:55:24.664Z,20.37
2019-05-10T21:57:56.217Z,21.40
2019-05-10T22:00:32.573Z,25.63
2019-05-10T22:03:05.002Z,24.60
2019-05-10T22:05:37.123Z,26.37
2019-05-10T22:08:09.161Z,26.03
2019-05-10T22:10:40.919Z,29.30
2019-05-10T22:13:13.568Z,29.65
2019-05-10T22:15:46.838Z,29.67
2019-05-10T22:18:18.758Z,30.97
2019-05-10T22:20:51.626Z,32.30
2019-05-10T22:23:23.456Z,32.53
2019-05-10T22:25:55.257Z,34.07
2019-05-10T22:28:28.057Z,33.77
2019-05-10T22:30:59.933Z,31.80
2019-05-10T22:33:32.052Z,30.27
2019-05-10T22:36:03.676Z,33.80
2019-05-10T22:38:35.303Z,36.47
2019-05-10T22:41:07.225Z,36.50
2019-05-10T22:43:39.910Z,35.97
2019-05-10T22:46:11.770Z,35.17
2019-05-10T22:48:43.524Z,34.20
2019-05-10T22:51:15.199Z,32.45
2019-05-10T22:53:59.091Z,32.73
2019-05-10T22:56:20.972Z,31.50
2019-05-10T22:58:53.121Z,32.17
2019-05-10T23:01:26.057Z,33.27
2019-05-10T23:03:57.760Z,32.13
2019-05-10T23:06:29.485Z,33.70
2019-05-10T23:09:01.212Z,33.80
2019-05-10T23:11:33.311Z,35.77
2019-05-10T23:14:06.099Z,36.13
2019-05-10T23:16:37.884Z,33.40
2019-05-10T23:19:11.188Z,34.83
2019-05-10T23:21:45.292Z,37.37
2019-05-10T23:24:18.242Z,35.78
2019-05-10T23:26:50.902Z,37.83
2019-05-10T23:29:22.527Z,39.97
2019-05-10T23:31:54.149Z,41.40
2019-05-10T23:34:26.377Z,40.23
2019-05-10T23:36:58.999Z,39.70
2019-05-10T23:39:40.322Z,40.07
2019-05-10T23:42:04.554Z,38.37
2019-05-10T23:44:38.897Z,37.63
2019-05-10T23:47:10.689Z,37.88
2019-05-10T23:49:42.568Z,37.63
2019-05-10T23:52:14.591Z,38.03
2019-05-10T23:54:47.243Z,38.13
2019-05-10T23:57:19.193Z,37.85
2019-05-10T23:59:50.857Z,37.77
